createdAt,value
2023-05-12T00:00:15.020Z,4.65
2023-05-12T00:01:20.015Z,4.53
2023-05-12T00:02:22.516Z,4.10
2023-05-12T00:03:24.896Z,4.60
2023-05-12T00:04:27.435Z,4.55
2023-05-12T00:05:30.633Z,4.75
2023-05-12T00:06:32.821Z,4.53
2023-05-12T00:07:35.343Z,4.15
2023-05-12T00:08:37.727Z,4.85
2023-05-12T00:09:42.006Z,4.80
2023-05-12T00:10:44.194Z,4.30
2023-05-12T00:11:48.616Z,4.45
2023-05-12T00:12:50.913Z,4.07
2023-05-12T00:13:54.996Z,4.30
2023-05-12T00:14:57.916Z,4.22
2023-05-12T00:16:00.220Z,4.05
2023-05-12T00:17:06.867Z,4.47
2023-05-12T00:18:09.369Z,4.63
2023-05-12T00:19:12.124Z,5.00
2023-05-12T00:20:14.694Z,4.32
2023-05-12T00:21:17.063Z,4.85
2023-05-12T00:22:19.325Z,4.10
2023-05-12T00:23:22.771Z,4.38
2023-05-12T00:24:25.794Z,4.47
2023-05-12T00:25:28.009Z,3.70
2023-05-12T00:26:30.439Z,4.60
2023-05-12T00:27:33.226Z,4.10
2023-05-12T00:28:35.936Z,4.80
2023-05-12T00:29:38.378Z,3.97
2023-05-12T00:30:40.661Z,4.68
2023-05-12T00:31:43.076Z,5.00
2023-05-12T00:32:45.610Z,4.45
2023-05-12T00:33:47.880Z,4.82
2023-05-12T00:34:50.891Z,4.25
2023-05-12T00:35:53.088Z,4.65
2023-05-12T00:36:55.457Z,4.97
2023-05-12T00:37:57.824Z,4.93
2023-05-12T00:39:00.441Z,4.50
2023-05-12T00:40:03.438Z,4.80
2023-05-12T00:41:06.010Z,4.95
2023-05-12T00:42:08.478Z,5.20
2023-05-12T00:43:12.253Z,5.15
2023-05-12T00:44:14.880Z,5.03
2023-05-12T00:45:17.238Z,4.80
2023-05-12T00:46:19.899Z,4.70
2023-05-12T00:47:22.400Z,5.22
2023-05-12T00:48:24.825Z,4.68
2023-05-12T00:49:27.763Z,5.28
2023-05-12T00:50:30.186Z,5.13
2023-05-12T00:51:33.020Z,5.57
2023-05-12T00:52:35.752Z,5.20
2023-05-12T00:53:48.510Z,5.07
2023-05-12T00:54:52.346Z,4.55
2023-05-12T00:55:55.671Z,5.35
2023-05-12T00:56:58.384Z,4.80
2023-05-12T00:58:00.844Z,5.07
2023-05-12T00:59:03.845Z,5.40
2023-05-12T01:00:08.940Z,5.60
2023-05-12T01:01:14.430Z,5.00
2023-05-12T01:02:17.047Z,5.13
2023-05-12T01:03:19.583Z,5.03
2023-05-12T01:04:22.245Z,4.80
2023-05-12T01:05:31.958Z,4.90
2023-05-12T01:06:52.167Z,4.55
2023-05-12T01:07:54.630Z,4.70
2023-05-12T01:08:57.727Z,4.90
2023-05-12T01:09:59.932Z,4.95
2023-05-12T01:11:04.002Z,4.93
2023-05-12T01:12:06.727Z,4.78
2023-05-12T01:13:10.117Z,4.75
2023-05-12T01:14:12.329Z,4.95
2023-05-12T01:15:14.926Z,4.97
2023-05-12T01:16:23.005Z,5.05
2023-05-12T01:17:32.240Z,5.45
2023-05-12T01:18:37.822Z,5.15
2023-05-12T01:19:49.456Z,5.32
2023-05-12T01:20:53.724Z,5.13
2023-05-12T01:21:56.658Z,4.90
2023-05-12T01:22:59.724Z,4.57
2023-05-12T01:24:08.516Z,5.20
2023-05-12T01:25:13.523Z,4.43
2023-05-12T01:26:16.542Z,4.63
2023-05-12T01:27:20.716Z,5.32
2023-05-12T01:28:23.566Z,4.85
2023-05-12T01:29:26.180Z,4.88
2023-05-12T01:30:30.255Z,4.90
2023-05-12T01:31:33.438Z,4.60
2023-05-12T01:32:36.918Z,5.00
2023-05-12T01:33:41.990Z,4.80
2023-05-12T01:34:45.626Z,4.82
2023-05-12T01:35:48.061Z,5.00
2023-05-12T01:36:50.684Z,4.53
2023-05-12T01:37:52.993Z,4.75
2023-05-12T01:38:55.495Z,5.20
2023-05-12T01:39:57.951Z,5.00
2023-05-12T01:41:00.162Z,4.97
2023-05-12T01:42:03.901Z,5.53
2023-05-12T01:43:06.132Z,5.07
2023-05-12T01:44:09.226Z,5.28
2023-05-12T01:45:12.041Z,5.05
2023-05-12T01:46:14.438Z,5.55
2023-05-12T01:47:17.974Z,5.18
2023-05-12T01:48:27.133Z,5.03
2023-05-12T01:49:31.827Z,5.15
2023-05-12T01:50:34.672Z,5.75
2023-05-12T01:51:38.137Z,5.03
2023-05-12T01:52:40.949Z,5.78
2023-05-12T01:53:48.208Z,5.55
2023-05-12T01:54:51.493Z,5.38
2023-05-12T01:56:16.444Z,5.07
2023-05-12T01:57:19.668Z,5.47
2023-05-12T01:58:22.830Z,4.93
2023-05-12T01:59:25.722Z,4.70
2023-05-12T02:00:28.847Z,5.28
2023-05-12T02:01:33.561Z,5.97
2023-05-12T02:02:36.545Z,5.32
2023-05-12T02:03:39.269Z,5.05
2023-05-12T02:04:47.096Z,4.82
2023-05-12T02:05:49.396Z,5.47
2023-05-12T02:06:52.113Z,5.43
2023-05-12T02:07:54.726Z,4.78
2023-05-12T02:08:57.894Z,4.70
2023-05-12T02:10:00.462Z,6.00
2023-05-12T02:11:09.168Z,4.95
2023-05-12T02:12:11.861Z,5.32
2023-05-12T02:13:14.166Z,5.53
2023-05-12T02:14:17.054Z,5.03
2023-05-12T02:15:19.324Z,5.82
2023-05-12T02:16:22.962Z,5.28
2023-05-12T02:17:25.342Z,5.97
2023-05-12T02:18:27.921Z,5.07
2023-05-12T02:19:30.484Z,5.00
2023-05-12T02:20:34.211Z,5.30
2023-05-12T02:21:37.274Z,5.40
2023-05-12T02:22:39.610Z,5.00
2023-05-12T02:23:41.838Z,5.53
2023-05-12T02:24:44.391Z,5.60
2023-05-12T02:25:46.633Z,5.38
2023-05-12T02:26:49.001Z,5.25
2023-05-12T02:27:51.230Z,6.15
2023-05-12T02:28:56.612Z,5.72
2023-05-12T02:29:59.213Z,5.05
2023-05-12T02:31:01.459Z,4.88
2023-05-12T02:32:05.829Z,5.22
2023-05-12T02:33:08.354Z,5.22
2023-05-12T02:34:10.830Z,5.40
2023-05-12T02:35:13.892Z,5.38
2023-05-12T02:36:16.128Z,5.53
2023-05-12T02:37:18.322Z,5.50
2023-05-12T02:38:20.851Z,5.43
2023-05-12T02:39:23.766Z,5.45
2023-05-12T02:40:26.105Z,5.47
2023-05-12T02:41:28.358Z,5.50
2023-05-12T02:42:35.475Z,5.60
2023-05-12T02:43:38.163Z,5.05
2023-05-12T02:44:40.784Z,5.43
2023-05-12T02:45:43.097Z,5.32
2023-05-12T02:46:45.433Z,5.55
2023-05-12T02:47:48.561Z,5.55
2023-05-12T02:48:50.866Z,6.07
2023-05-12T02:49:55.744Z,5.65
2023-05-12T02:50:57.995Z,5.20
2023-05-12T02:52:00.195Z,5.65
2023-05-12T02:53:02.656Z,4.88
2023-05-12T02:54:05.524Z,5.53
2023-05-12T02:55:08.199Z,6.43
2023-05-12T02:56:10.396Z,5.32
2023-05-12T02:57:12.582Z,5.72
2023-05-12T02:58:15.015Z,6.15
2023-05-12T02:59:17.259Z,5.30
2023-05-12T03:00:20.313Z,5.57
2023-05-12T03:01:22.758Z,6.05
2023-05-12T03:02:25.208Z,6.50
2023-05-12T03:03:27.537Z,4.88
2023-05-12T03:04:29.913Z,5.50
2023-05-12T03:05:32.468Z,6.43
2023-05-12T03:06:34.652Z,5.18
2023-05-12T03:07:37.013Z,6.13
2023-05-12T03:08:39.519Z,5.28
2023-05-12T03:09:41.929Z,5.88
2023-05-12T03:10:44.794Z,5.18
2023-05-12T03:11:46.994Z,4.97
2023-05-12T03:12:49.153Z,5.50
2023-05-12T03:13:51.668Z,5.97
2023-05-12T03:14:53.965Z,5.20
2023-05-12T03:15:57.328Z,5.60
2023-05-12T03:16:59.559Z,5.60
2023-05-12T03:18:01.979Z,5.68
2023-05-12T03:19:05.624Z,5.85
2023-05-12T03:20:08.693Z,5.63
2023-05-12T03:21:13.171Z,5.60
2023-05-12T03:22:15.474Z,5.40
2023-05-12T03:23:17.701Z,5.75
2023-05-12T03:24:20.031Z,5.70
2023-05-12T03:25:22.672Z,5.25
2023-05-12T03:26:24.900Z,5.25
2023-05-12T03:27:27.181Z,5.60
2023-05-12T03:28:29.630Z,5.57
2023-05-12T03:29:31.933Z,5.72
2023-05-12T03:30:34.405Z,5.75
2023-05-12T03:31:36.984Z,5.63
2023-05-12T03:32:40.535Z,5.78
2023-05-12T03:33:45.070Z,5.45
2023-05-12T03:34:47.381Z,5.60
2023-05-12T03:35:51.199Z,5.53
2023-05-12T03:36:53.703Z,5.90
2023-05-12T03:37:56.244Z,5.93
2023-05-12T03:38:58.695Z,5.95
2023-05-12T03:40:00.927Z,5.80
2023-05-12T03:41:07.060Z,6.22
2023-05-12T03:42:10.439Z,6.65
2023-05-12T03:43:12.959Z,5.78
2023-05-12T03:44:15.358Z,5.60
2023-05-12T03:45:18.007Z,5.13
2023-05-12T03:46:21.035Z,5.15
2023-05-12T03:47:23.709Z,5.85
2023-05-12T03:48:26.206Z,5.25
2023-05-12T03:49:28.442Z,5.80
2023-05-12T03:50:30.791Z,6.13
2023-05-12T03:51:33.171Z,6.00
2023-05-12T03:52:38.290Z,5.70
2023-05-12T03:53:45.144Z,5.85
2023-05-12T03:54:48.469Z,6.32
2023-05-12T03:55:51.187Z,5.85
2023-05-12T03:56:54.155Z,6.07
2023-05-12T03:57:56.715Z,5.93
2023-05-12T03:58:59.067Z,6.05
2023-05-12T04:00:02.211Z,5.60
2023-05-12T04:01:15.122Z,5.57
2023-05-12T04:02:17.438Z,6.13
2023-05-12T04:03:20.529Z,5.45
2023-05-12T04:04:22.760Z,5.70
2023-05-12T04:05:25.372Z,5.55
2023-05-12T04:06:27.975Z,6.28
2023-05-12T04:07:30.188Z,5.68
2023-05-12T04:08:32.453Z,6.10
2023-05-12T04:09:35.775Z,6.13
2023-05-12T04:10:40.420Z,6.05
2023-05-12T04:11:43.390Z,5.68
2023-05-12T04:12:45.650Z,5.53
2023-05-12T04:13:48.287Z,6.22
2023-05-12T04:14:51.086Z,5.97
2023-05-12T04:15:57.102Z,5.50
2023-05-12T04:16:59.579Z,5.28
2023-05-12T04:18:03.191Z,5.63
2023-05-12T04:19:05.751Z,5.60
2023-05-12T04:20:08.600Z,6.10
2023-05-12T04:21:11.029Z,5.60
2023-05-12T04:22:13.445Z,5.78
2023-05-12T04:23:16.713Z,5.78
2023-05-12T04:24:19.250Z,6.45
2023-05-12T04:25:21.942Z,6.13
2023-05-12T04:26:24.245Z,6.30
2023-05-12T04:27:27.292Z,5.75
2023-05-12T04:28:29.529Z,5.65
2023-05-12T04:29:31.957Z,5.93
2023-05-12T04:30:34.178Z,6.15
2023-05-12T04:31:36.502Z,5.70
2023-05-12T04:32:40.498Z,5.60
2023-05-12T04:33:42.972Z,6.20
2023-05-12T04:34:45.626Z,5.50
2023-05-12T04:35:48.035Z,5.28
2023-05-12T04:36:51.857Z,6.20
2023-05-12T04:37:54.885Z,6.30
2023-05-12T04:38:57.377Z,6.55
2023-05-12T04:39:59.741Z,5.38
2023-05-12T04:41:02.359Z,6.07
2023-05-12T04:42:06.079Z,5.60
2023-05-12T04:44:00.212Z,5.85
2023-05-12T04:44:32.159Z,5.80
2023-05-12T04:45:35.550Z,6.20
2023-05-12T04:46:38.064Z,6.45
2023-05-12T04:47:41.278Z,5.25
2023-05-12T04:48:44.452Z,5.88
2023-05-12T04:49:46.926Z,5.70
2023-05-12T04:50:50.120Z,5.95
2023-05-12T04:51:53.059Z,6.20
2023-05-12T04:52:55.499Z,5.60
2023-05-12T04:53:58.051Z,6.18
2023-05-12T04:55:01.277Z,5.93
2023-05-12T04:56:03.960Z,5.95
2023-05-12T04:57:12.027Z,6.40
2023-05-12T04:58:14.881Z,5.78
2023-05-12T04:59:17.841Z,5.88
2023-05-12T05:00:22.724Z,6.32
2023-05-12T05:01:25.218Z,5.88
2023-05-12T05:02:28.241Z,5.93
2023-05-12T05:03:30.931Z,5.43
2023-05-12T05:04:33.616Z,5.75
2023-05-12T05:05:35.856Z,5.75
2023-05-12T05:06:38.376Z,5.63
2023-05-12T05:07:41.544Z,6.25
2023-05-12T05:08:43.937Z,6.60
2023-05-12T05:09:46.980Z,6.25
2023-05-12T05:10:49.247Z,5.50
2023-05-12T05:11:51.643Z,5.97
2023-05-12T05:12:54.237Z,5.70
2023-05-12T05:13:56.568Z,5.95
2023-05-12T05:14:58.929Z,5.80
2023-05-12T05:16:01.686Z,6.15
2023-05-12T05:17:04.088Z,5.72
2023-05-12T05:18:06.603Z,6.05
2023-05-12T05:19:20.022Z,5.80
2023-05-12T05:20:29.278Z,5.25
2023-05-12T05:21:32.851Z,5.30
2023-05-12T05:22:35.445Z,5.43
2023-05-12T05:23:37.761Z,5.70
2023-05-12T05:24:41.912Z,7.18
2023-05-12T05:25:44.506Z,6.10
2023-05-12T05:26:46.856Z,5.88
2023-05-12T05:27:49.549Z,5.45
2023-05-12T05:28:55.108Z,5.70
2023-05-12T05:29:59.391Z,5.68
2023-05-12T05:31:01.621Z,5.28
2023-05-12T05:32:04.551Z,5.60
2023-05-12T05:33:07.602Z,5.45
2023-05-12T05:34:09.893Z,6.18
2023-05-12T05:35:13.318Z,6.25
2023-05-12T05:36:23.079Z,5.63
2023-05-12T05:37:25.656Z,5.65
2023-05-12T05:38:30.657Z,5.60
2023-05-12T05:39:32.918Z,5.93
2023-05-12T05:40:48.832Z,5.70
2023-05-12T05:41:54.142Z,5.63
2023-05-12T05:42:56.585Z,5.57
2023-05-12T05:43:59.270Z,5.32
2023-05-12T05:45:01.535Z,5.70
2023-05-12T05:46:04.028Z,5.53
2023-05-12T05:47:07.210Z,5.55
2023-05-12T05:48:10.290Z,6.10
2023-05-12T05:49:13.918Z,6.00
2023-05-12T05:50:17.016Z,6.00
2023-05-12T05:51:19.213Z,6.03
2023-05-12T05:52:22.705Z,6.40
2023-05-12T05:53:25.112Z,6.03
2023-05-12T05:54:28.467Z,6.20
2023-05-12T05:55:30.708Z,6.20
2023-05-12T05:56:33.378Z,5.78
2023-05-12T05:57:36.060Z,6.57
2023-05-12T05:58:38.655Z,6.85
2023-05-12T05:59:40.818Z,6.03
2023-05-12T06:00:43.938Z,6.22
2023-05-12T06:01:46.276Z,5.97
2023-05-12T06:02:48.866Z,5.70
2023-05-12T06:03:54.513Z,6.20
2023-05-12T06:04:57.614Z,6.68
2023-05-12T06:05:59.933Z,5.72
2023-05-12T06:07:02.260Z,6.30
2023-05-12T06:08:05.403Z,5.80
2023-05-12T06:09:09.591Z,5.47
2023-05-12T06:10:12.100Z,5.97
2023-05-12T06:11:15.884Z,6.53
2023-05-12T06:12:19.715Z,5.93
2023-05-12T06:13:22.011Z,6.40
2023-05-12T06:14:24.433Z,5.70
2023-05-12T06:15:26.652Z,5.80
2023-05-12T06:16:29.318Z,5.78
2023-05-12T06:17:32.851Z,5.55
2023-05-12T06:18:38.059Z,5.53
2023-05-12T06:19:40.784Z,5.35
2023-05-12T06:20:43.512Z,5.55
2023-05-12T06:21:45.760Z,5.30
2023-05-12T06:22:48.560Z,5.65
2023-05-12T06:23:52.445Z,5.72
2023-05-12T06:24:54.877Z,5.80
2023-05-12T06:25:57.116Z,5.15
2023-05-12T06:26:59.493Z,5.50
2023-05-12T06:28:08.461Z,5.15
2023-05-12T06:29:11.009Z,5.40
2023-05-12T06:30:16.015Z,5.72
2023-05-12T06:31:18.620Z,5.45
2023-05-12T06:32:23.023Z,5.38
2023-05-12T06:33:25.453Z,5.53
2023-05-12T06:34:27.969Z,5.82
2023-05-12T06:35:30.138Z,5.75
2023-05-12T06:36:32.764Z,5.57
2023-05-12T06:37:36.318Z,5.78
2023-05-12T06:38:38.782Z,5.55
2023-05-12T06:39:41.265Z,5.32
2023-05-12T06:40:43.523Z,5.53
2023-05-12T06:41:45.731Z,5.65
2023-05-12T06:42:55.622Z,4.75
2023-05-12T06:44:02.393Z,5.22
2023-05-12T06:45:05.917Z,5.25
2023-05-12T06:46:08.724Z,5.18
2023-05-12T06:47:11.496Z,5.53
2023-05-12T06:48:14.081Z,5.93
2023-05-12T06:49:16.291Z,5.15
2023-05-12T06:50:18.765Z,5.53
2023-05-12T06:51:21.463Z,5.80
2023-05-12T06:52:24.017Z,5.30
2023-05-12T06:53:26.431Z,5.75
2023-05-12T06:54:29.265Z,5.45
2023-05-12T06:55:34.387Z,6.47
2023-05-12T06:56:36.640Z,5.78
2023-05-12T06:57:38.860Z,5.20
2023-05-12T06:58:41.234Z,5.35
2023-05-12T06:59:43.421Z,5.30
2023-05-12T07:00:45.818Z,5.63
2023-05-12T07:01:48.048Z,5.90
2023-05-12T07:02:50.579Z,5.70
2023-05-12T07:03:52.962Z,5.60
2023-05-12T07:04:55.555Z,5.18
2023-05-12T07:05:57.983Z,5.40
2023-05-12T07:07:00.232Z,5.60
2023-05-12T07:08:02.737Z,5.60
2023-05-12T07:09:04.997Z,5.55
2023-05-12T07:10:08.429Z,5.30
2023-05-12T07:11:10.774Z,4.95
2023-05-12T07:12:13.029Z,5.65
2023-05-12T07:13:15.307Z,5.20
2023-05-12T07:14:17.762Z,4.80
2023-05-12T07:15:20.278Z,5.20
2023-05-12T07:16:22.793Z,5.68
2023-05-12T07:17:25.074Z,5.60
2023-05-12T07:18:27.385Z,5.53
2023-05-12T07:19:31.170Z,6.03
2023-05-12T07:20:33.571Z,5.72
2023-05-12T07:21:36.842Z,5.35
2023-05-12T07:22:39.335Z,5.65
2023-05-12T07:23:41.966Z,4.80
2023-05-12T07:24:44.487Z,5.22
2023-05-12T07:25:47.269Z,4.63
2023-05-12T07:26:49.511Z,5.10
2023-05-12T07:27:52.033Z,4.90
2023-05-12T07:28:54.273Z,5.30
2023-05-12T07:29:56.582Z,5.00
2023-05-12T07:30:59.772Z,4.70
2023-05-12T07:32:02.157Z,4.75
2023-05-12T07:33:04.659Z,5.18
2023-05-12T07:34:07.450Z,4.53
2023-05-12T07:35:10.236Z,4.93
2023-05-12T07:36:12.868Z,4.82
2023-05-12T07:37:15.248Z,4.72
2023-05-12T07:38:17.651Z,4.75
2023-05-12T07:39:23.731Z,4.60
2023-05-12T07:40:26.244Z,5.10
2023-05-12T07:41:28.868Z,4.63
2023-05-12T07:42:31.354Z,4.57
2023-05-12T07:43:33.553Z,5.03
2023-05-12T07:44:36.281Z,4.40
2023-05-12T07:45:38.679Z,4.57
2023-05-12T07:46:40.918Z,4.40
2023-05-12T07:47:43.192Z,4.70
2023-05-12T07:48:46.076Z,4.80
2023-05-12T07:49:48.597Z,4.97
2023-05-12T07:50:51.025Z,4.30
2023-05-12T07:51:53.319Z,4.22
2023-05-12T07:52:55.669Z,4.78
2023-05-12T07:53:58.212Z,4.38
2023-05-12T07:55:00.674Z,4.22
2023-05-12T07:56:02.952Z,4.65
2023-05-12T07:57:05.581Z,4.60
2023-05-12T07:58:08.097Z,4.43
2023-05-12T07:59:10.866Z,3.85
2023-05-12T08:00:14.375Z,4.75
2023-05-12T08:01:16.802Z,4.15
2023-05-12T08:02:20.712Z,4.20
2023-05-12T08:03:23.011Z,4.25
2023-05-12T08:04:25.619Z,4.78
2023-05-12T08:05:28.167Z,3.90
2023-05-12T08:06:38.990Z,4.20
2023-05-12T08:07:43.657Z,4.20
2023-05-12T08:08:46.394Z,3.90
2023-05-12T08:09:48.787Z,4.40
2023-05-12T08:10:50.996Z,3.83
2023-05-12T08:11:53.445Z,4.32
2023-05-12T08:12:56.685Z,4.00
2023-05-12T08:13:58.899Z,3.53
2023-05-12T08:15:01.434Z,4.32
2023-05-12T08:16:04.106Z,3.85
2023-05-12T08:17:07.026Z,3.80
2023-05-12T08:18:09.465Z,4.88
2023-05-12T08:19:13.099Z,3.47
2023-05-12T08:20:15.645Z,4.53
2023-05-12T08:21:18.231Z,3.80
2023-05-12T08:22:20.436Z,3.90
2023-05-12T08:23:24.231Z,3.92
2023-05-12T08:24:27.354Z,3.65
2023-05-12T08:25:30.732Z,4.25
2023-05-12T08:26:33.322Z,3.83
2023-05-12T08:27:35.587Z,3.65
2023-05-12T08:28:37.861Z,4.32
2023-05-12T08:29:40.275Z,3.55
2023-05-12T08:30:42.950Z,3.70
2023-05-12T08:31:45.683Z,3.53
2023-05-12T08:32:48.096Z,3.95
2023-05-12T08:34:02.725Z,3.47
2023-05-12T08:35:12.027Z,3.63
2023-05-12T08:36:14.539Z,3.63
2023-05-12T08:37:17.066Z,3.88
2023-05-12T08:38:19.594Z,3.33
2023-05-12T08:39:22.065Z,3.95
2023-05-12T08:40:25.735Z,3.78
2023-05-12T08:41:44.855Z,3.95
2023-05-12T08:43:01.650Z,3.90
2023-05-12T08:44:05.435Z,3.88
2023-05-12T08:45:08.262Z,4.13
2023-05-12T08:46:12.432Z,4.15
2023-05-12T08:47:19.019Z,3.58
2023-05-12T08:48:22.138Z,4.15
2023-05-12T08:49:29.393Z,3.70
2023-05-12T08:50:35.468Z,3.65
2023-05-12T08:51:40.657Z,3.28
2023-05-12T08:52:43.141Z,4.35
2023-05-12T08:53:49.206Z,4.03
2023-05-12T08:54:56.082Z,4.03
2023-05-12T08:57:10.059Z,3.80
2023-05-12T08:57:28.177Z,3.47
2023-05-12T08:58:40.975Z,3.40
2023-05-12T08:59:44.713Z,3.33
2023-05-12T09:00:48.176Z,3.28
2023-05-12T09:01:51.235Z,3.70
2023-05-12T09:02:55.752Z,3.97
2023-05-12T09:03:58.358Z,3.42
2023-05-12T09:05:00.682Z,3.10
2023-05-12T09:06:05.583Z,3.20
2023-05-12T09:07:07.976Z,2.97
2023-05-12T09:08:10.932Z,3.28
2023-05-12T09:09:15.616Z,3.42
2023-05-12T09:10:34.617Z,3.22
2023-05-12T09:11:38.341Z,3.58
2023-05-12T09:12:42.766Z,3.05
2023-05-12T09:13:49.615Z,3.65
2023-05-12T09:14:59.878Z,3.33
2023-05-12T09:16:04.331Z,3.63
2023-05-12T09:17:07.090Z,3.65
2023-05-12T09:18:09.398Z,3.17
2023-05-12T09:19:11.788Z,3.20
2023-05-12T09:20:27.898Z,3.00
2023-05-12T09:21:34.394Z,3.40
2023-05-12T09:22:36.777Z,3.80
2023-05-12T09:23:39.494Z,3.60
2023-05-12T09:24:41.808Z,3.65
2023-05-12T09:25:45.004Z,3.33
2023-05-12T09:26:49.973Z,3.28
2023-05-12T09:27:56.590Z,4.20
2023-05-12T09:29:06.842Z,3.40
2023-05-12T09:30:09.410Z,3.60
2023-05-12T09:31:19.305Z,3.90
2023-05-12T09:32:33.122Z,3.30
2023-05-12T09:33:36.823Z,3.60
2023-05-12T09:34:41.637Z,3.35
2023-05-12T09:35:45.856Z,3.47
2023-05-12T09:37:01.284Z,3.38
2023-05-12T09:38:07.753Z,3.42
2023-05-12T09:39:10.648Z,3.40
2023-05-12T09:40:13.999Z,3.22
2023-05-12T09:41:23.414Z,3.05
2023-05-12T09:42:29.818Z,3.42
2023-05-12T09:43:32.160Z,3.63
2023-05-12T09:44:34.441Z,3.95
2023-05-12T09:45:39.183Z,2.97
2023-05-12T09:46:41.464Z,2.92
2023-05-12T09:47:44.956Z,3.53
2023-05-12T09:48:48.243Z,3.00
2023-05-12T09:49:52.178Z,3.30
2023-05-12T09:50:54.592Z,3.55
2023-05-12T09:51:58.797Z,2.63
2023-05-12T09:53:01.709Z,3.03
2023-05-12T09:54:05.731Z,2.72
2023-05-12T09:55:12.050Z,2.90
2023-05-12T09:56:15.569Z,2.85
2023-05-12T09:57:21.058Z,3.33
2023-05-12T09:58:27.371Z,2.72
2023-05-12T09:59:34.232Z,2.78
2023-05-12T10:00:52.381Z,2.97
2023-05-12T10:02:04.720Z,3.10
2023-05-12T10:03:17.785Z,3.05
2023-05-12T10:04:20.843Z,3.42
2023-05-12T10:05:24.233Z,3.15
2023-05-12T10:06:37.676Z,3.70
2023-05-12T10:07:40.994Z,2.80
2023-05-12T10:08:51.278Z,3.22
2023-05-12T10:09:59.400Z,2.95
2023-05-12T10:11:05.371Z,3.20
2023-05-12T10:12:08.894Z,2.88
2023-05-12T10:13:14.297Z,3.28
2023-05-12T10:14:17.342Z,2.50
2023-05-12T10:15:21.236Z,3.25
2023-05-12T10:16:24.303Z,3.10
2023-05-12T10:17:26.929Z,3.03
2023-05-12T10:18:30.270Z,3.15
2023-05-12T10:19:33.026Z,3.17
2023-05-12T10:20:36.384Z,3.35
2023-05-12T10:21:39.427Z,2.80
2023-05-12T10:22:42.467Z,4.05
2023-05-12T10:23:45.730Z,2.95
2023-05-12T10:24:49.137Z,2.92
2023-05-12T10:25:56.778Z,4.15
2023-05-12T10:27:01.158Z,3.42
2023-05-12T10:28:04.562Z,3.35
2023-05-12T10:29:07.025Z,2.72
2023-05-12T10:30:11.022Z,2.70
2023-05-12T10:31:14.128Z,2.65
2023-05-12T10:32:16.534Z,2.97
2023-05-12T10:33:19.164Z,2.90
2023-05-12T10:34:21.639Z,2.72
2023-05-12T10:35:33.971Z,2.30
2023-05-12T10:36:58.332Z,3.55
2023-05-12T10:38:27.330Z,2.90
2023-05-12T10:39:30.869Z,2.95
2023-05-12T10:40:33.527Z,2.67
2023-05-12T10:41:35.830Z,2.70
2023-05-12T10:42:41.540Z,3.03
2023-05-12T10:43:48.273Z,2.85
2023-05-12T10:44:52.138Z,2.53
2023-05-12T10:46:13.095Z,2.70
2023-05-12T10:47:15.469Z,3.00
2023-05-12T10:48:17.649Z,3.00
2023-05-12T10:49:20.172Z,2.78
2023-05-12T10:50:29.028Z,2.83
2023-05-12T10:51:33.286Z,3.00
2023-05-12T10:52:35.503Z,3.08
2023-05-12T10:53:49.336Z,3.30
2023-05-12T10:55:02.361Z,2.40
2023-05-12T10:56:06.304Z,2.75
2023-05-12T10:57:21.206Z,2.80
2023-05-12T10:58:24.098Z,2.50
2023-05-12T10:59:29.887Z,3.20
2023-05-12T11:00:33.053Z,2.97
2023-05-12T11:01:36.576Z,2.90
2023-05-12T11:02:51.066Z,2.63
2023-05-12T11:03:58.859Z,2.17
2023-05-12T11:05:05.106Z,2.45
2023-05-12T11:06:08.696Z,2.42
2023-05-12T11:07:14.094Z,2.90
2023-05-12T11:08:17.954Z,2.60
2023-05-12T11:09:21.787Z,3.10
2023-05-12T11:10:24.781Z,2.90
2023-05-12T11:11:29.633Z,2.83
2023-05-12T11:12:35.352Z,2.70
2023-05-12T11:13:38.247Z,2.60
2023-05-12T11:14:42.196Z,3.05
2023-05-12T11:15:45.261Z,3.30
2023-05-12T11:16:47.571Z,3.28
2023-05-12T11:17:49.830Z,3.13
2023-05-12T11:19:05.380Z,2.92
2023-05-12T11:20:10.132Z,3.53
2023-05-12T11:21:12.391Z,2.85
2023-05-12T11:22:17.913Z,2.72
2023-05-12T11:23:29.536Z,2.85
2023-05-12T11:24:31.939Z,3.10
2023-05-12T11:25:34.525Z,3.33
2023-05-12T11:26:36.757Z,2.85
2023-05-12T11:27:44.741Z,3.00
2023-05-12T11:28:47.231Z,2.85
2023-05-12T11:29:59.828Z,3.60
2023-05-12T11:31:02.408Z,3.25
2023-05-12T11:32:04.940Z,3.17
2023-05-12T11:33:07.391Z,3.47
2023-05-12T11:34:12.782Z,3.45
2023-05-12T11:35:17.637Z,3.22
2023-05-12T11:36:21.779Z,3.22
2023-05-12T11:37:24.052Z,2.88
2023-05-12T11:38:28.275Z,3.60
2023-05-12T11:39:32.408Z,3.25
2023-05-12T11:40:40.263Z,3.42
2023-05-12T11:41:43.183Z,3.95
2023-05-12T11:42:48.391Z,3.22
2023-05-12T11:43:51.035Z,3.50
2023-05-12T11:44:55.393Z,4.10
2023-05-12T11:45:58.068Z,3.38
2023-05-12T11:47:10.778Z,2.95
2023-05-12T11:48:14.018Z,3.65
2023-05-12T11:49:16.511Z,3.13
2023-05-12T11:50:23.828Z,3.85
2023-05-12T11:51:27.559Z,3.30
2023-05-12T11:52:29.954Z,3.75
2023-05-12T11:53:33.629Z,2.83
2023-05-12T11:54:35.837Z,3.35
2023-05-12T11:55:38.111Z,3.60
2023-05-12T11:56:48.560Z,3.70
2023-05-12T11:58:26.765Z,3.55
2023-05-12T11:59:34.007Z,3.33
2023-05-12T12:00:36.305Z,3.90
2023-05-12T12:01:48.756Z,3.10
2023-05-12T12:02:51.260Z,3.22
2023-05-12T12:03:55.669Z,3.38
2023-05-12T12:04:58.244Z,3.00
2023-05-12T12:06:02.986Z,3.28
2023-05-12T12:07:05.881Z,3.05
2023-05-12T12:08:15.891Z,3.10
2023-05-12T12:09:18.466Z,3.90
2023-05-12T12:10:20.949Z,3.30
2023-05-12T12:11:28.223Z,3.58
2023-05-12T12:12:30.472Z,3.28
2023-05-12T12:13:32.957Z,3.05
2023-05-12T12:14:38.267Z,3.10
2023-05-12T12:15:40.623Z,3.30
2023-05-12T12:16:42.812Z,3.03
2023-05-12T12:17:45.266Z,3.60
2023-05-12T12:18:47.714Z,3.33
2023-05-12T12:19:50.109Z,3.63
2023-05-12T12:20:52.340Z,3.17
2023-05-12T12:21:55.609Z,3.10
2023-05-12T12:22:57.803Z,3.10
2023-05-12T12:24:00.255Z,2.83
2023-05-12T12:25:03.652Z,2.95
2023-05-12T12:26:06.057Z,3.50
2023-05-12T12:27:08.442Z,2.90
2023-05-12T12:28:11.096Z,2.92
2023-05-12T12:29:13.692Z,4.00
2023-05-12T12:30:17.244Z,2.97
2023-05-12T12:31:19.435Z,2.97
2023-05-12T12:32:21.758Z,3.33
2023-05-12T12:33:24.452Z,3.38
2023-05-12T12:34:26.725Z,2.95
2023-05-12T12:35:29.074Z,3.08
2023-05-12T12:36:32.910Z,3.10
2023-05-12T12:37:35.247Z,3.30
2023-05-12T12:38:38.131Z,3.38
2023-05-12T12:39:40.647Z,4.05
2023-05-12T12:40:43.104Z,2.80
2023-05-12T12:41:48.107Z,2.83
2023-05-12T12:42:50.647Z,3.03
2023-05-12T12:43:53.424Z,2.75
2023-05-12T12:44:55.983Z,3.55
2023-05-12T12:45:58.335Z,2.97
2023-05-12T12:47:00.678Z,3.25
2023-05-12T12:48:03.252Z,2.67
2023-05-12T12:49:05.804Z,2.80
2023-05-12T12:50:10.139Z,2.60
2023-05-12T12:51:12.753Z,2.67
2023-05-12T12:52:15.037Z,3.13
2023-05-12T12:53:17.343Z,3.03
2023-05-12T12:54:19.664Z,2.42
2023-05-12T12:55:22.292Z,2.78
2023-05-12T12:56:25.778Z,2.50
2023-05-12T12:57:28.055Z,2.85
2023-05-12T12:58:30.444Z,2.63
2023-05-12T12:59:33.183Z,2.20
2023-05-12T13:00:36.379Z,2.75
2023-05-12T13:01:38.743Z,2.42
2023-05-12T13:02:41.285Z,2.60
2023-05-12T13:03:43.869Z,2.42
2023-05-12T13:04:46.220Z,2.58
2023-05-12T13:05:48.711Z,2.42
2023-05-12T13:06:50.917Z,2.22
2023-05-12T13:07:53.531Z,2.25
2023-05-12T13:08:56.492Z,2.17
2023-05-12T13:09:59.172Z,2.42
2023-05-12T13:11:01.852Z,2.40
2023-05-12T13:12:04.465Z,2.20
2023-05-12T13:13:07.276Z,2.47
2023-05-12T13:14:10.403Z,2.50
2023-05-12T13:15:12.889Z,2.20
2023-05-12T13:16:15.555Z,2.45
2023-05-12T13:17:17.791Z,3.05
2023-05-12T13:18:20.771Z,2.35
2023-05-12T13:19:23.081Z,2.30
2023-05-12T13:20:25.313Z,2.53
2023-05-12T13:21:28.031Z,2.35
2023-05-12T13:22:30.299Z,2.65
2023-05-12T13:23:32.689Z,2.35
2023-05-12T13:24:34.963Z,2.13
2023-05-12T13:25:37.237Z,2.30
2023-05-12T13:26:40.112Z,2.05
2023-05-12T13:27:42.465Z,2.38
2023-05-12T13:28:44.691Z,2.30
2023-05-12T13:29:49.887Z,2.25
2023-05-12T13:30:52.712Z,2.08
2023-05-12T13:31:55.011Z,2.20
2023-05-12T13:32:57.332Z,2.10
2023-05-12T13:33:59.530Z,2.00
2023-05-12T13:35:02.336Z,2.20
2023-05-12T13:36:04.886Z,2.03
2023-05-12T13:37:07.445Z,2.22
2023-05-12T13:38:10.854Z,2.15
2023-05-12T13:39:13.141Z,2.00
2023-05-12T13:40:15.658Z,2.17
2023-05-12T13:41:18.301Z,2.60
2023-05-12T13:42:22.388Z,2.20
2023-05-12T13:43:24.594Z,2.10
2023-05-12T13:44:27.772Z,1.98
2023-05-12T13:45:29.931Z,1.92
2023-05-12T13:46:32.424Z,2.60
2023-05-12T13:47:35.140Z,2.30
2023-05-12T13:48:37.422Z,1.90
2023-05-12T13:49:39.813Z,2.28
2023-05-12T13:50:41.986Z,2.10
2023-05-12T13:51:44.179Z,1.73
2023-05-12T13:52:47.663Z,2.00
2023-05-12T13:53:49.877Z,2.05
2023-05-12T13:54:52.466Z,2.08
2023-05-12T13:55:54.888Z,2.00
2023-05-12T13:56:57.528Z,2.00
2023-05-12T13:57:59.884Z,2.13
2023-05-12T13:59:02.267Z,2.03
2023-05-12T14:00:05.873Z,2.03
2023-05-12T14:01:19.821Z,2.22
2023-05-12T14:02:22.279Z,2.22
2023-05-12T14:03:24.683Z,2.20
2023-05-12T14:04:27.220Z,2.65
2023-05-12T14:05:29.487Z,3.85
2023-05-12T14:06:32.510Z,2.40
2023-05-12T14:07:34.880Z,2.25
2023-05-12T14:08:37.144Z,2.60
2023-05-12T14:09:39.345Z,2.47